Terminal Aerodrome Forecast
Issued by NWS

Current Version | Previous Version | Graphics & Text | Print | Product List | Glossary On
Versions: 1 2 3 4 5 6 7 8 9 10 11 12 13 14 15 16 17 18 19 20 21 22 23 24 25 26 27 28 29
000
FTUS41 KILN 281137
TAFLUK
TAF
KLUK 281137Z 2812/2912 VRB04KT 6SM -SHRA BR VCTS BKN011CB OVC070
      TEMPO 2812/2813 2SM -TSRA BR
     FM281300 22004KT P6SM -RA VCTS BKN035CB OVC070
     FM281400 VRB04KT 4SM -SHRA BR VCTS BKN035CB OVC070
      TEMPO 2814/2816 2SM -TSRA BR OVC025CB
     FM281600 22004KT P6SM VCTS BKN040CB BKN150
     FM290100 VRB02KT P6SM SCT040 BKN150
     FM290800 VRB02KT 3SM BR BKN150=

USA.gov is the U.S. government's official web portal to all federal, state and local government web resources and services.